Time;durP1;ratioP1;P1;durP2;ratioP2;P2;SDS_P1;SDS_P2;PMS_P1;PMS_P2;Temp;Humidity;BMP_temperature;BMP_pressure;BME280_temperature;BME280_humidity;BME280_pressure;Samples;Min_cycle;Max_cycle;Signal;HPM_P1;HPM_P2
2020/12/24 00:00:28;;;;;;;9.00;1.70;;;10.60;79.40;;;;;;5033284;28;20112;-81
2020/12/24 00:02:54;;;;;;;7.63;1.50;;;10.50;78.50;;;;;;5033410;28;20414;-82
2020/12/24 00:05:20;;;;;;;10.67;1.63;;;10.50;78.30;;;;;;5033430;28;20029;-82
2020/12/24 00:07:45;;;;;;;9.13;2.07;;;10.50;78.50;;;;;;5033184;28;20037;-82
2020/12/24 00:10:11;;;;;;;6.10;1.50;;;10.50;78.30;;;;;;5032990;28;20025;-82
2020/12/24 00:12:38;;;;;;;13.50;2.40;;;10.40;77.90;;;;;;5033083;28;20194;-81
2020/12/24 00:15:05;;;;;;;13.17;3.70;;;10.40;78.60;;;;;;5033076;28;20041;-82
2020/12/24 00:17:31;;;;;;;16.00;5.73;;;10.40;78.20;;;;;;5059140;23;20718;-85
2020/12/24 00:19:57;;;;;;;13.70;4.00;;;10.40;78.20;;;;;;5052733;28;20033;-86
2020/12/24 00:22:23;;;;;;;14.90;3.83;;;10.40;77.80;;;;;;5058659;28;20025;-85
2020/12/24 00:24:48;;;;;;;9.60;1.80;;;10.30;77.80;;;;;;5073104;28;20005;-86
2020/12/24 00:27:14;;;;;;;8.87;1.63;;;10.30;77.80;;;;;;5072733;28;20029;-85
2020/12/24 00:29:39;;;;;;;8.07;1.50;;;10.30;77.70;;;;;;5055132;28;20029;-86
2020/12/24 00:32:05;;;;;;;9.77;1.40;;;10.30;77.50;;;;;;5053163;28;20029;-86
2020/12/24 00:34:31;;;;;;;8.23;1.83;;;10.30;77.30;;;;;;5051593;28;20037;-86
2020/12/24 00:36:57;;;;;;;12.03;2.13;;;10.30;77.10;;;;;;5052331;28;20032;-86
2020/12/24 00:39:23;;;;;;;11.77;2.10;;;10.30;77.40;;;;;;5049844;28;20024;-86
2020/12/24 00:41:49;;;;;;;8.80;1.90;;;10.20;77.00;;;;;;5051030;28;20067;-86
2020/12/24 00:44:14;;;;;;;8.33;1.70;;;10.20;77.20;;;;;;5052595;28;20028;-86
2020/12/24 00:46:40;;;;;;;12.63;2.33;;;10.20;77.80;;;;;;5051395;28;20021;-86
2020/12/24 00:49:06;;;;;;;9.27;2.07;;;10.20;77.70;;;;;;5052133;28;20021;-86
2020/12/24 00:51:31;;;;;;;10.57;2.50;;;10.20;78.20;;;;;;5051526;28;20033;-87
2020/12/24 00:53:57;;;;;;;11.47;2.57;;;10.20;78.40;;;;;;5051343;28;20033;-87
2020/12/24 00:56:22;;;;;;;15.03;2.43;;;10.20;78.10;;;;;;5051379;28;20052;-86
2020/12/24 00:58:48;;;;;;;11.77;2.40;;;10.20;78.30;;;;;;5052243;28;20104;-85
2020/12/24 01:01:14;;;;;;;18.73;4.10;;;10.20;78.30;;;;;;5051273;28;20028;-86
2020/12/24 01:03:39;;;;;;;10.80;2.70;;;10.20;77.90;;;;;;5051295;28;20401;-87
2020/12/24 01:06:05;;;;;;;9.17;2.20;;;10.20;78.70;;;;;;5052613;28;20508;-86
2020/12/24 01:08:31;;;;;;;12.80;2.53;;;10.10;78.30;;;;;;5051453;28;20079;-86
2020/12/24 01:10:56;;;;;;;10.70;2.63;;;10.10;78.40;;;;;;5050842;28;20400;-86
2020/12/24 01:13:22;;;;;;;10.03;2.17;;;10.00;78.30;;;;;;5052545;28;20033;-86
2020/12/24 01:15:47;;;;;;;13.03;2.20;;;10.00;78.90;;;;;;5051428;28;20473;-86
2020/12/24 01:18:13;;;;;;;12.27;2.70;;;10.10;78.90;;;;;;5052490;28;20033;-87
2020/12/24 01:20:39;;;;;;;8.90;1.80;;;10.00;79.30;;;;;;5050930;28;20167;-86
2020/12/24 01:23:05;;;;;;;11.17;2.10;;;10.00;78.50;;;;;;5051078;28;20036;-86
2020/12/24 01:25:31;;;;;;;13.10;2.30;;;10.00;78.80;;;;;;5052751;28;20726;-86
2020/12/24 01:27:57;;;;;;;11.33;1.97;;;10.00;79.10;;;;;;5051339;28;20024;-86
2020/12/24 01:30:23;;;;;;;10.30;2.20;;;10.00;79.00;;;;;;5050894;28;20021;-86
2020/12/24 01:32:48;;;;;;;14.23;2.57;;;10.00;78.70;;;;;;5051392;28;20025;-86
2020/12/24 01:35:14;;;;;;;10.90;2.03;;;10.00;78.90;;;;;;5052562;28;20593;-87
2020/12/24 01:37:40;;;;;;;11.37;1.80;;;10.00;79.40;;;;;;5052680;28;20033;-86
2020/12/24 01:40:05;;;;;;;14.17;2.47;;;10.00;79.30;;;;;;5050891;28;20071;-87
2020/12/24 01:42:31;;;;;;;14.60;2.93;;;10.00;79.00;;;;;;5051122;28;20035;-86
2020/12/24 01:44:57;;;;;;;13.27;2.30;;;10.00;79.00;;;;;;5051037;28;20028;-85
2020/12/24 01:47:23;;;;;;;10.20;2.70;;;10.00;79.00;;;;;;5051470;28;20048;-86
2020/12/24 01:49:49;;;;;;;17.80;2.67;;;9.90;78.80;;;;;;5051255;28;20021;-86
2020/12/24 01:52:27;;;;;;;13.77;2.87;;;9.90;79.10;;;;;;5056376;28;20032;-86
2020/12/24 01:54:53;;;;;;;15.10;3.20;;;9.90;79.00;;;;;;5056529;28;20104;-86
2020/12/24 01:57:19;;;;;;;15.60;3.20;;;9.90;79.30;;;;;;5054823;28;20488;-86
2020/12/24 01:59:45;;;;;;;12.63;3.50;;;10.00;79.40;;;;;;5054394;28;20021;-86
2020/12/24 02:02:10;;;;;;;14.50;3.23;;;10.00;79.80;;;;;;5054561;28;20029;-86
2020/12/24 02:04:36;;;;;;;20.50;3.93;;;9.90;79.00;;;;;;5054756;28;20178;-85
2020/12/24 02:07:01;;;;;;;14.50;2.63;;;10.00;79.00;;;;;;5056747;28;20025;-86
2020/12/24 02:09:27;;;;;;;12.33;2.70;;;9.90;78.30;;;;;;5056751;28;20040;-86
2020/12/24 02:11:53;;;;;;;15.83;3.40;;;9.90;78.40;;;;;;5063766;28;20013;-86
2020/12/24 02:14:18;;;;;;;14.20;3.80;;;10.00;79.00;;;;;;5077550;28;20059;-86
2020/12/24 02:16:44;;;;;;;12.47;3.07;;;10.00;78.70;;;;;;5077194;28;20025;-86
2020/12/24 02:19:10;;;;;;;16.23;3.60;;;10.00;78.70;;;;;;5075990;28;20117;-86
2020/12/24 02:21:35;;;;;;;11.80;3.10;;;10.00;78.60;;;;;;5076870;28;20032;-85
2020/12/24 02:24:02;;;;;;;14.43;3.87;;;10.00;78.40;;;;;;5076857;28;20072;-86
2020/12/24 02:26:32;;;;;;;17.97;3.40;;;10.00;78.30;;;;;;5076517;28;20038;-85
2020/12/24 02:28:58;;;;;;;12.02;2.85;;;10.00;77.50;;;;;;5075960;28;20009;-86
2020/12/24 02:31:24;;;;;;;10.87;2.23;;;10.00;76.90;;;;;;5076138;28;20030;-86
2020/12/24 02:33:49;;;;;;;11.83;2.57;;;10.00;77.30;;;;;;5062231;28;20034;-86
2020/12/24 02:36:15;;;;;;;11.70;2.10;;;10.00;77.20;;;;;;5053450;28;20032;-86
2020/12/24 02:38:41;;;;;;;12.47;2.47;;;10.00;77.40;;;;;;5053089;28;20025;-86
2020/12/24 02:41:07;;;;;;;11.27;2.27;;;9.90;78.10;;;;;;5053846;28;20082;-86
2020/12/24 02:43:32;;;;;;;13.90;2.30;;;9.90;77.30;;;;;;5052992;28;20021;-86
2020/12/24 02:45:58;;;;;;;13.87;2.33;;;9.90;77.40;;;;;;5054419;28;20021;-86
2020/12/24 02:48:24;;;;;;;8.97;1.53;;;9.90;77.40;;;;;;5054416;28;20801;-86
2020/12/24 02:50:49;;;;;;;11.10;2.50;;;9.90;77.50;;;;;;5052533;28;20021;-86
2020/12/24 02:53:15;;;;;;;10.67;1.90;;;9.80;77.50;;;;;;5052817;28;20508;-86
2020/12/24 02:55:41;;;;;;;10.73;2.00;;;9.90;77.50;;;;;;5052940;28;20167;-86
2020/12/24 02:58:07;;;;;;;12.67;2.10;;;9.80;78.00;;;;;;5052980;28;20057;-86
2020/12/24 03:00:32;;;;;;;11.60;2.03;;;9.80;77.90;;;;;;5052308;28;20024;-86
2020/12/24 03:02:58;;;;;;;10.03;2.37;;;9.70;78.10;;;;;;5052223;28;20048;-86
2020/12/24 03:05:24;;;;;;;13.73;2.67;;;9.80;79.20;;;;;;5052694;28;20029;-86
2020/12/24 03:07:50;;;;;;;12.10;1.57;;;9.70;80.70;;;;;;5052653;28;20029;-85
2020/12/24 03:10:17;;;;;;;10.47;1.70;;;9.60;82.70;;;;;;5053172;28;20029;-85
2020/12/24 03:12:42;;;;;;;12.10;1.77;;;9.60;83.40;;;;;;5052018;28;20060;-84
2020/12/24 03:15:08;;;;;;;10.17;1.40;;;9.60;82.90;;;;;;5051161;28;20068;-84
2020/12/24 03:17:34;;;;;;;12.53;2.00;;;9.60;83.10;;;;;;5051870;28;20032;-84
2020/12/24 03:19:59;;;;;;;11.73;2.50;;;9.60;83.30;;;;;;5051656;28;20124;-85
2020/12/24 03:22:25;;;;;;;9.33;1.90;;;9.60;83.50;;;;;;5053299;28;20356;-85
2020/12/24 03:24:51;;;;;;;11.93;1.83;;;9.60;84.10;;;;;;5051710;28;20106;-85
2020/12/24 03:27:16;;;;;;;10.10;2.10;;;9.60;84.60;;;;;;5051949;28;20048;-85
2020/12/24 03:29:42;;;;;;;12.63;1.97;;;9.50;85.20;;;;;;5051602;28;20071;-85
2020/12/24 03:32:08;;;;;;;11.13;1.87;;;9.50;85.00;;;;;;5053015;28;20040;-85
2020/12/24 03:34:33;;;;;;;7.60;1.23;;;9.50;84.80;;;;;;5053202;28;20074;-85
2020/12/24 03:36:59;;;;;;;12.83;2.27;;;9.50;84.70;;;;;;5053080;28;20033;-85
2020/12/24 03:39:25;;;;;;;13.30;1.87;;;9.50;83.50;;;;;;5051221;28;20558;-85
2020/12/24 03:41:50;;;;;;;11.17;1.63;;;9.50;84.50;;;;;;5051729;28;20021;-85
2020/12/24 03:44:16;;;;;;;12.23;1.67;;;9.50;84.00;;;;;;5052006;28;20017;-85
2020/12/24 03:46:42;;;;;;;12.37;2.00;;;9.50;83.40;;;;;;5053412;28;20032;-85
2020/12/24 03:49:07;;;;;;;16.93;2.30;;;9.50;83.40;;;;;;5051134;28;20071;-84
2020/12/24 03:51:33;;;;;;;11.53;1.90;;;9.50;82.50;;;;;;5053173;28;20017;-85
2020/12/24 03:53:58;;;;;;;6.63;1.40;;;9.50;82.30;;;;;;5053036;28;20020;-84
2020/12/24 03:56:24;;;;;;;11.00;1.70;;;9.50;81.90;;;;;;5053154;28;20044;-85
2020/12/24 03:58:50;;;;;;;10.30;1.60;;;9.50;81.80;;;;;;5051185;28;20048;-85
2020/12/24 04:01:15;;;;;;;11.87;2.40;;;9.50;81.30;;;;;;5051289;28;20028;-85
2020/12/24 04:03:41;;;;;;;11.20;1.80;;;9.50;81.20;;;;;;5052989;28;20533;-84
2020/12/24 04:06:06;;;;;;;16.57;2.53;;;9.50;81.10;;;;;;5052883;28;20029;-85
2020/12/24 04:08:32;;;;;;;13.63;2.43;;;9.50;80.90;;;;;;5051710;28;20124;-85
2020/12/24 04:10:58;;;;;;;12.50;2.00;;;9.60;80.60;;;;;;5052202;28;20055;-85
2020/12/24 04:13:23;;;;;;;10.43;2.10;;;9.50;80.60;;;;;;5050706;28;20056;-85
2020/12/24 04:15:49;;;;;;;13.20;2.47;;;9.50;80.40;;;;;;5051516;28;20056;-85
2020/12/24 04:18:18;;;;;;;9.60;1.60;;;9.50;80.70;;;;;;5051255;28;20043;-85
2020/12/24 04:20:43;;;;;;;10.07;1.45;;;9.50;80.90;;;;;;5051070;28;20025;-85
2020/12/24 04:23:09;;;;;;;10.77;2.33;;;9.60;80.90;;;;;;5052318;28;20393;-84
2020/12/24 04:25:35;;;;;;;11.33;1.73;;;9.50;80.20;;;;;;5052534;28;20053;-85
2020/12/24 04:28:00;;;;;;;10.13;2.30;;;9.50;81.00;;;;;;5052397;28;20377;-85
2020/12/24 04:30:26;;;;;;;12.13;2.30;;;9.50;80.30;;;;;;5051538;28;20028;-85
2020/12/24 04:32:51;;;;;;;10.43;1.80;;;9.50;80.90;;;;;;5052396;28;20546;-85
2020/12/24 04:35:17;;;;;;;10.00;2.47;;;9.50;81.00;;;;;;5051171;28;20050;-85
2020/12/24 04:37:42;;;;;;;8.97;1.50;;;9.50;81.10;;;;;;5052456;28;20508;-84
2020/12/24 04:40:08;;;;;;;8.40;1.93;;;9.50;81.60;;;;;;5050932;28;20025;-85
2020/12/24 04:42:34;;;;;;;13.33;2.20;;;9.50;81.50;;;;;;5051056;28;20025;-85
2020/12/24 04:45:00;;;;;;;12.33;1.87;;;9.50;81.80;;;;;;5052443;28;20021;-84
2020/12/24 04:47:28;;;;;;;9.40;1.40;;;9.50;81.80;;;;;;5052209;28;20470;-84
2020/12/24 04:49:58;;;;;;;11.07;1.50;;;9.50;82.40;;;;;;5050672;28;20496;-85
2020/12/24 04:52:23;;;;;;;;;;;9.50;82.00;;;;;;5051450;28;20071;-85
2020/12/24 04:54:49;;;;;;;10.40;1.87;;;9.40;82.10;;;;;;5051097;28;19905;-85
2020/12/24 04:57:15;;;;;;;11.20;2.00;;;9.40;82.30;;;;;;5052304;28;20053;-85
2020/12/24 04:59:42;;;;;;;14.77;1.40;;;9.40;82.10;;;;;;5050504;28;20065;-84
2020/12/24 05:02:08;;;;;;;9.20;1.80;;;9.40;81.90;;;;;;5051996;28;20100;-85
2020/12/24 05:04:33;;;;;;;9.50;1.67;;;9.40;82.30;;;;;;5050867;28;20075;-85
2020/12/24 05:07:05;;;;;;;10.07;2.27;;;9.50;82.40;;;;;;5052175;28;20049;-85
2020/12/24 05:09:32;;;;;;;14.17;2.50;;;9.40;82.40;;;;;;5051678;28;20060;-84
2020/12/24 05:11:58;;;;;;;12.40;2.27;;;9.40;82.60;;;;;;5052468;28;20025;-84
2020/12/24 05:14:26;;;;;;;11.03;2.33;;;9.40;82.90;;;;;;5070236;28;20021;-85
2020/12/24 05:17:09;;;;;;;10.37;2.27;;;9.40;83.00;;;;;;5071807;28;20025;-84
2020/12/24 05:19:47;;;;;;;9.40;2.00;;;9.40;83.30;;;;;;5058272;28;20041;-85
2020/12/24 05:22:20;;;;;;;10.13;3.03;;;9.40;83.30;;;;;;5050804;28;20051;-84
2020/12/24 05:24:46;;;;;;;9.23;2.17;;;9.30;83.60;;;;;;5052775;28;20025;-85
2020/12/24 05:27:20;;;;;;;11.30;2.03;;;9.30;83.90;;;;;;5054569;28;20021;-85
2020/12/24 05:29:48;;;;;;;11.10;2.50;;;9.30;84.50;;;;;;5054100;28;20024;-84
2020/12/24 05:32:13;;;;;;;10.87;2.10;;;9.30;84.00;;;;;;5054400;28;20112;-85
2020/12/24 05:34:40;;;;;;;7.77;1.30;;;9.30;84.00;;;;;;5054315;28;20552;-84
2020/12/24 05:37:17;;;;;;;12.43;2.00;;;9.20;84.90;;;;;;5058715;28;20032;-84
2020/12/24 05:39:47;;;;;;;12.63;2.00;;;9.30;85.00;;;;;;5059605;28;20025;-85
2020/12/24 05:42:12;;;;;;;11.05;2.00;;;9.20;84.90;;;;;;5061544;28;20032;-84
2020/12/24 05:44:39;;;;;;;8.83;2.30;;;9.20;85.50;;;;;;5059615;28;20111;-84
2020/12/24 05:47:06;;;;;;;10.27;1.60;;;9.10;85.80;;;;;;5059985;28;20028;-85
2020/12/24 05:49:33;;;;;;;8.43;1.77;;;9.20;87.20;;;;;;5059660;28;20102;-85
2020/12/24 05:52:01;;;;;;;10.30;2.10;;;9.10;87.20;;;;;;5060399;28;20027;-85
2020/12/24 05:54:29;;;;;;;11.90;1.58;;;9.20;87.10;;;;;;5059083;28;20138;-86
2020/12/24 05:56:56;;;;;;;7.23;1.90;;;9.10;87.30;;;;;;5059058;28;20493;-85
2020/12/24 05:59:24;;;;;;;10.63;1.70;;;9.10;88.00;;;;;;5058394;28;20025;-85
2020/12/24 06:02:09;;;;;;;11.70;1.53;;;9.10;88.50;;;;;;5058506;28;20053;-85
2020/12/24 06:04:46;;;;;;;10.97;1.70;;;9.10;88.70;;;;;;5059144;28;20025;-85
2020/12/24 06:07:18;;;;;;;12.43;1.63;;;9.10;88.80;;;;;;5058121;28;20484;-84
2020/12/24 06:09:45;;;;;;;10.43;1.37;;;9.10;89.20;;;;;;5058082;28;20029;-86
2020/12/24 06:12:18;;;;;;;12.50;1.60;;;9.10;89.10;;;;;;5057980;28;20032;-85
2020/12/24 06:14:47;;;;;;;11.77;2.23;;;9.10;89.40;;;;;;5057152;28;20489;-85
2020/12/24 06:17:22;;;;;;;;;;;9.10;89.60;;;;;;5057672;28;20466;-85
2020/12/24 06:19:49;;;;;;;14.03;1.80;;;9.10;90.00;;;;;;5056379;28;19912;-86
2020/12/24 06:22:16;;;;;;;8.00;1.90;;;9.10;89.70;;;;;;5063860;28;20462;-85
2020/12/24 06:24:50;;;;;;;5.97;1.40;;;9.00;90.00;;;;;;5068099;28;20025;-84
2020/12/24 06:27:40;;;;;;;12.83;2.17;;;9.10;90.10;;;;;;5067940;28;20527;-84
2020/12/24 06:30:28;;;;;;;13.37;1.80;;;9.00;90.00;;;;;;5067429;28;20053;-86
2020/12/24 06:32:54;;;;;;;8.83;1.80;;;9.10;90.00;;;;;;5067326;28;20024;-85
2020/12/24 06:35:39;;;;;;;10.80;2.20;;;9.00;90.00;;;;;;5067092;28;20045;-85
2020/12/24 06:38:07;;;;;;;10.53;1.70;;;9.10;89.80;;;;;;5066201;28;20492;-85
2020/12/24 06:40:38;;;;;;;10.67;1.80;;;9.10;90.10;;;;;;5066595;28;20025;-85
2020/12/24 06:43:08;;;;;;;8.87;1.50;;;9.10;89.70;;;;;;5065727;28;20028;-84
2020/12/24 06:45:39;;;;;;;9.83;1.70;;;9.00;90.10;;;;;;5066633;28;20021;-85
2020/12/24 06:48:23;;;;;;;12.70;2.03;;;9.10;89.60;;;;;;5068268;28;20031;-84
2020/12/24 06:50:52;;;;;;;7.63;1.57;;;9.10;89.20;;;;;;5065235;28;20025;-85
2020/12/24 06:53:23;;;;;;;11.10;1.80;;;9.10;89.30;;;;;;5066099;28;20031;-85
2020/12/24 06:56:14;;;;;;;10.80;1.63;;;9.10;89.00;;;;;;5065173;28;20029;-85
2020/12/24 06:58:45;;;;;;;11.17;2.23;;;9.10;89.20;;;;;;5064358;28;20036;-84
2020/12/24 07:01:15;;;;;;;11.67;2.20;;;9.20;89.20;;;;;;5064248;28;20025;-84
2020/12/24 07:03:41;;;;;;;11.73;2.00;;;9.20;88.80;;;;;;5065011;28;20513;-84
2020/12/24 07:06:07;;;;;;;13.90;2.27;;;9.20;88.80;;;;;;5065617;28;20044;-84
2020/12/24 07:08:32;;;;;;;11.00;2.50;;;9.10;89.30;;;;;;5064615;28;20245;-84
2020/12/24 07:11:00;;;;;;;9.13;1.97;;;9.10;88.90;;;;;;5066080;28;20076;-85
2020/12/24 07:13:42;;;;;;;9.53;2.50;;;9.20;89.30;;;;;;5065498;28;20033;-85
2020/12/24 07:16:09;;;;;;;14.40;2.77;;;9.10;88.40;;;;;;5065743;28;20067;-85
2020/12/24 07:18:39;;;;;;;11.93;2.80;;;9.00;89.00;;;;;;5065561;28;20123;-85
2020/12/24 07:21:07;;;;;;;13.23;2.37;;;9.00;89.50;;;;;;5065641;28;20211;-85
2020/12/24 07:23:34;;;;;;;12.80;2.23;;;9.10;89.50;;;;;;5064581;28;20029;-85
2020/12/24 07:26:23;;;;;;;9.80;2.00;;;9.10;89.30;;;;;;5064216;28;20021;-85
2020/12/24 07:28:57;;;;;;;11.03;1.70;;;9.00;89.90;;;;;;5063736;28;20509;-85
2020/12/24 07:31:26;;;;;;;9.17;1.87;;;9.00;89.90;;;;;;5065125;28;20045;-84
2020/12/24 07:33:52;;;;;;;7.97;1.98;;;9.00;90.10;;;;;;5065481;28;20044;-85
2020/12/24 07:36:24;;;;;;;11.37;2.50;;;9.00;90.10;;;;;;5062688;28;20037;-85
2020/12/24 07:38:49;;;;;;;5.47;1.50;;;8.70;90.00;;;;;;5062865;28;20029;-84
2020/12/24 07:41:16;;;;;;;5.67;1.43;;;8.50;89.50;;;;;;5064575;28;20512;-84
2020/12/24 07:43:42;;;;;;;3.07;1.13;;;8.50;90.00;;;;;;5063750;28;20033;-85
2020/12/24 07:46:07;;;;;;;6.50;1.10;;;8.20;88.10;;;;;;5064140;28;20055;-84
2020/12/24 07:48:33;;;;;;;2.20;1.50;;;8.00;87.30;;;;;;5064736;28;20029;-84
2020/12/24 07:51:07;;;;;;;3.33;1.50;;;7.80;89.30;;;;;;5062414;28;20366;-84
2020/12/24 07:53:35;;;;;;;3.00;1.80;;;7.90;88.40;;;;;;5065388;28;20418;-84
2020/12/24 07:56:06;;;;;;;2.20;1.60;;;7.70;88.60;;;;;;5065885;28;20064;-84
2020/12/24 07:58:34;;;;;;;1.40;1.10;;;7.60;89.70;;;;;;5063759;28;20033;-85
2020/12/24 08:01:03;;;;;;;4.73;2.80;;;7.60;89.50;;;;;;5064638;28;20024;-85
2020/12/24 08:03:29;;;;;;;4.97;2.75;;;7.70;89.40;;;;;;5066187;28;20029;-85
2020/12/24 08:06:06;;;;;;;3.50;2.03;;;7.30;87.80;;;;;;5064568;28;20054;-84
2020/12/24 08:08:35;;;;;;;2.57;1.10;;;7.10;88.90;;;;;;5064305;28;20024;-84
2020/12/24 08:11:05;;;;;;;2.65;1.20;;;7.30;89.00;;;;;;5064249;28;20461;-85
2020/12/24 08:13:31;;;;;;;1.63;1.20;;;7.10;88.50;;;;;;5067262;28;20033;-86
2020/12/24 08:15:57;;;;;;;2.40;1.70;;;7.10;89.30;;;;;;5066919;28;20021;-86
2020/12/24 08:18:31;;;;;;;1.40;1.00;;;7.30;88.10;;;;;;5067849;28;20033;-86
2020/12/24 08:21:15;;;;;;;1.37;0.93;;;7.30;86.30;;;;;;5065086;28;20029;-84
2020/12/24 08:23:52;;;;;;;1.47;0.70;;;7.20;85.60;;;;;;5065830;28;20029;-85
2020/12/24 08:26:19;;;;;;;1.67;0.60;;;7.10;85.80;;;;;;5065552;28;20025;-86
2020/12/24 08:28:54;;;;;;;2.20;1.20;;;7.20;85.70;;;;;;5065959;28;20021;-85
2020/12/24 08:31:22;;;;;;;2.83;1.13;;;7.30;85.00;;;;;;5067443;28;20028;-85
2020/12/24 08:33:50;;;;;;;2.00;0.80;;;7.30;84.60;;;;;;5065642;28;20056;-85
2020/12/24 08:36:26;;;;;;;2.10;0.80;;;7.20;84.70;;;;;;5063032;28;20088;-84
2020/12/24 08:39:06;;;;;;;1.43;0.87;;;7.20;85.50;;;;;;5062344;28;20059;-85
2020/12/24 08:41:35;;;;;;;2.20;1.00;;;7.10;85.80;;;;;;5063499;28;20033;-84
2020/12/24 08:44:04;;;;;;;2.00;1.10;;;7.20;85.60;;;;;;5065183;28;20029;-84
2020/12/24 08:46:30;;;;;;;4.93;2.60;;;7.20;85.40;;;;;;5062760;28;20029;-84
2020/12/24 08:48:56;;;;;;;3.00;1.43;;;7.30;85.90;;;;;;5061893;28;20589;-84
2020/12/24 08:51:29;;;;;;;2.03;1.30;;;7.40;85.70;;;;;;5064030;28;20042;-84
2020/12/24 08:54:07;;;;;;;3.83;2.00;;;7.30;84.60;;;;;;5064269;28;20029;-83
2020/12/24 08:56:35;;;;;;;3.13;1.50;;;7.40;84.80;;;;;;5063880;28;20025;-84
2020/12/24 08:59:15;;;;;;;3.47;1.40;;;7.30;84.90;;;;;;5062437;28;20036;-84
2020/12/24 09:01:42;;;;;;;3.10;1.40;;;7.30;85.60;;;;;;5068240;28;20033;-85
2020/12/24 09:04:16;;;;;;;2.47;1.00;;;7.40;85.50;;;;;;5068457;28;20021;-86
2020/12/24 09:06:43;;;;;;;1.80;1.07;;;7.20;84.60;;;;;;5068025;28;20032;-85
2020/12/24 09:09:19;;;;;;;2.23;1.37;;;7.20;84.60;;;;;;5069836;28;20028;-85
2020/12/24 09:11:44;;;;;;;1.97;1.30;;;7.30;85.00;;;;;;5068379;28;20111;-85
2020/12/24 09:14:16;;;;;;;4.20;1.73;;;7.40;85.60;;;;;;5068915;28;20025;-85
2020/12/24 09:16:58;;;;;;;3.00;1.13;;;7.40;85.40;;;;;;5070900;28;20052;-85
2020/12/24 09:19:25;;;;;;;2.57;1.63;;;7.40;85.80;;;;;;5067754;28;20039;-85
2020/12/24 09:21:58;;;;;;;2.70;1.57;;;7.40;85.90;;;;;;5068484;28;20025;-85
2020/12/24 09:24:25;;;;;;;2.77;1.67;;;7.40;85.20;;;;;;5070344;28;20092;-85
2020/12/24 09:26:55;;;;;;;2.90;1.40;;;7.30;85.10;;;;;;5070773;28;20017;-85
2020/12/24 09:29:23;;;;;;;4.20;1.50;;;7.20;85.50;;;;;;5069278;28;20100;-86
2020/12/24 09:31:59;;;;;;;2.53;1.63;;;7.30;85.30;;;;;;5069919;28;20017;-85
2020/12/24 09:34:28;;;;;;;4.00;1.60;;;7.40;85.40;;;;;;5069917;28;20385;-86
2020/12/24 09:36:54;;;;;;;3.25;1.63;;;7.40;84.60;;;;;;5067801;28;20025;-84
2020/12/24 09:39:20;;;;;;;4.67;2.10;;;7.50;85.30;;;;;;5068722;28;20077;-85
2020/12/24 09:41:47;;;;;;;3.00;1.60;;;7.50;85.20;;;;;;5068149;28;20025;-85
2020/12/24 09:44:13;;;;;;;2.50;1.60;;;7.50;84.60;;;;;;5068220;28;20048;-84
2020/12/24 09:46:39;;;;;;;2.70;1.70;;;7.50;84.50;;;;;;5070028;28;20093;-86
2020/12/24 09:49:06;;;;;;;3.60;1.67;;;7.20;85.00;;;;;;5069430;28;20032;-85
2020/12/24 09:51:33;;;;;;;3.00;1.70;;;7.10;85.40;;;;;;5068215;28;20040;-85
2020/12/24 09:53:59;;;;;;;3.93;1.90;;;7.20;85.90;;;;;;5068126;28;20052;-84
2020/12/24 09:56:26;;;;;;;3.07;1.63;;;7.10;84.40;;;;;;5069416;28;20168;-84
2020/12/24 09:58:52;;;;;;;5.60;1.90;;;7.10;84.90;;;;;;5068437;28;20025;-85
2020/12/24 10:01:17;;;;;;;3.43;1.50;;;7.10;85.50;;;;;;5067105;28;20362;-85
2020/12/24 10:03:43;;;;;;;1.77;1.27;;;7.10;85.30;;;;;;5067933;28;20025;-85
2020/12/24 10:06:09;;;;;;;2.53;1.47;;;7.00;85.10;;;;;;5069999;28;20025;-85
2020/12/24 10:08:35;;;;;;;2.43;1.40;;;6.70;86.00;;;;;;5068378;28;20644;-84
2020/12/24 10:11:00;;;;;;;2.03;1.30;;;6.60;86.70;;;;;;5067580;28;20023;-85
2020/12/24 10:13:26;;;;;;;2.00;1.30;;;6.60;86.50;;;;;;5067807;28;20025;-86
2020/12/24 10:15:51;;;;;;;1.77;0.90;;;6.50;86.20;;;;;;5068159;28;20025;-86
2020/12/24 10:18:19;;;;;;;2.40;1.20;;;6.60;85.50;;;;;;5070944;28;20040;-86
2020/12/24 10:20:45;;;;;;;1.60;1.00;;;6.70;85.20;;;;;;5070177;28;20025;-85
2020/12/24 10:23:10;;;;;;;3.10;1.40;;;6.80;85.20;;;;;;5069066;28;20033;-86
2020/12/24 10:25:40;;;;;;;1.53;1.20;;;6.70;84.70;;;;;;5067844;28;20021;-84
2020/12/24 10:28:08;;;;;;;2.08;0.90;;;6.80;85.10;;;;;;5068160;28;20492;-85
2020/12/24 10:30:34;;;;;;;1.55;1.02;;;6.90;84.30;;;;;;5068681;28;20033;-85
2020/12/24 10:33:00;;;;;;;3.30;1.47;;;6.90;85.00;;;;;;5070309;28;20028;-85
2020/12/24 10:35:25;;;;;;;2.37;1.43;;;7.00;84.60;;;;;;5068889;28;20124;-85
2020/12/24 10:37:51;;;;;;;3.27;1.10;;;7.00;85.20;;;;;;5069430;28;20035;-85
2020/12/24 10:40:17;;;;;;;4.23;1.70;;;7.10;84.80;;;;;;5067990;28;20033;-86
2020/12/24 10:42:46;;;;;;;2.93;1.40;;;7.00;84.40;;;;;;5069050;28;20024;-85
2020/12/24 10:45:12;;;;;;;3.33;1.83;;;6.70;83.90;;;;;;5068116;28;20458;-84
2020/12/24 10:47:38;;;;;;;3.60;1.60;;;6.70;84.80;;;;;;5068089;28;20036;-86
2020/12/24 10:50:05;;;;;;;3.80;2.00;;;6.80;85.50;;;;;;5067258;28;20029;-85
2020/12/24 10:52:30;;;;;;;3.27;1.87;;;6.60;86.20;;;;;;5067872;28;20394;-86
2020/12/24 10:54:56;;;;;;;3.10;2.00;;;6.80;85.90;;;;;;5068666;28;20031;-86
2020/12/24 10:57:30;;;;;;;3.37;1.90;;;6.80;86.30;;;;;;5066955;28;20025;-85
2020/12/24 10:59:56;;;;;;;3.47;2.07;;;6.90;85.10;;;;;;5061570;28;20036;-85
2020/12/24 11:02:22;;;;;;;4.53;2.53;;;6.90;85.00;;;;;;5055062;28;20458;-85
2020/12/24 11:04:47;;;;;;;4.40;2.33;;;6.80;84.80;;;;;;5054872;28;20033;-85
2020/12/24 11:07:13;;;;;;;3.20;2.63;;;6.70;84.60;;;;;;5053583;28;20025;-85
2020/12/24 11:09:38;;;;;;;4.10;2.30;;;6.60;85.50;;;;;;5054301;28;20025;-85
2020/12/24 11:12:04;;;;;;;3.30;2.43;;;6.70;85.60;;;;;;5054713;28;20115;-85
2020/12/24 11:14:30;;;;;;;4.97;3.37;;;6.70;85.30;;;;;;5053715;28;20262;-85
2020/12/24 11:16:59;;;;;;;4.10;2.83;;;6.30;86.00;;;;;;5054929;28;20029;-85
2020/12/24 11:19:24;;;;;;;7.13;4.07;;;6.30;87.10;;;;;;5054463;28;20033;-85
2020/12/24 11:21:50;;;;;;;8.93;4.53;;;6.50;87.20;;;;;;5058658;28;20040;-85
2020/12/24 11:24:16;;;;;;;11.20;5.47;;;6.50;87.00;;;;;;5053378;28;20063;-85
2020/12/24 11:26:41;;;;;;;13.90;6.73;;;6.60;86.80;;;;;;5054755;28;20017;-85
2020/12/24 11:29:08;;;;;;;12.30;6.20;;;6.60;86.80;;;;;;5053626;28;20056;-85
2020/12/24 11:31:36;;;;;;;14.90;7.43;;;6.60;86.70;;;;;;5053998;28;20044;-84
2020/12/24 11:34:03;;;;;;;14.87;8.20;;;6.60;86.70;;;;;;5054495;28;20023;-85
2020/12/24 11:36:29;;;;;;;13.40;8.07;;;6.50;87.30;;;;;;5055436;28;20027;-84
2020/12/24 11:38:56;;;;;;;16.07;9.00;;;6.50;87.50;;;;;;5054421;28;20025;-86
2020/12/24 11:41:23;;;;;;;16.93;8.93;;;6.40;87.90;;;;;;5057176;28;20031;-86
2020/12/24 11:43:50;;;;;;;18.20;9.07;;;6.40;88.40;;;;;;5076321;28;20051;-84
2020/12/24 11:46:18;;;;;;;18.50;9.43;;;6.40;88.30;;;;;;5076627;28;20029;-84
2020/12/24 11:48:43;;;;;;;16.77;9.00;;;6.40;89.10;;;;;;5076232;28;20083;-84
2020/12/24 11:51:11;;;;;;;16.73;9.50;;;6.40;89.50;;;;;;5073220;28;20032;-84
2020/12/24 11:53:38;;;;;;;17.30;8.50;;;6.30;90.10;;;;;;5067140;28;20040;-85
2020/12/24 11:56:06;;;;;;;17.63;8.43;;;6.30;90.20;;;;;;5056756;28;20507;-84
2020/12/24 11:58:31;;;;;;;17.80;8.60;;;6.40;90.10;;;;;;5052800;28;20035;-85
2020/12/24 12:00:57;;;;;;;12.83;6.43;;;6.50;90.20;;;;;;5051800;28;20482;-85
2020/12/24 12:03:23;;;;;;;11.60;5.63;;;6.70;90.00;;;;;;5052109;28;20112;-85
2020/12/24 12:05:48;;;;;;;15.63;6.67;;;6.70;89.80;;;;;;5052299;28;20024;-85
2020/12/24 12:08:17;;;;;;;12.17;6.13;;;6.70;90.00;;;;;;5053979;28;20078;-85
2020/12/24 12:10:42;;;;;;;8.20;4.20;;;6.90;89.20;;;;;;5053201;28;20021;-85
2020/12/24 12:13:08;;;;;;;8.63;3.87;;;6.80;89.60;;;;;;5052102;28;20432;-85
2020/12/24 12:15:34;;;;;;;7.30;3.40;;;6.70;90.00;;;;;;5053155;28;20028;-84
2020/12/24 12:17:59;;;;;;;5.90;2.87;;;6.70;89.70;;;;;;5052640;28;20402;-86
2020/12/24 12:20:25;;;;;;;4.93;2.93;;;6.60;90.00;;;;;;5051907;28;20064;-86
2020/12/24 12:22:52;;;;;;;8.10;3.23;;;6.60;90.00;;;;;;5051842;28;20036;-86
2020/12/24 12:25:19;;;;;;;5.73;2.87;;;6.50;90.00;;;;;;5053692;28;20013;-86
2020/12/24 12:27:45;;;;;;;5.37;2.83;;;6.50;90.40;;;;;;5051936;28;20028;-86
2020/12/24 12:30:11;;;;;;;6.40;2.27;;;6.50;90.40;;;;;;5053335;28;20024;-86
2020/12/24 12:32:36;;;;;;;8.63;2.83;;;6.60;90.40;;;;;;5052525;28;20029;-86
2020/12/24 12:35:02;;;;;;;4.80;2.60;;;6.60;90.20;;;;;;5053150;28;20107;-86
2020/12/24 12:37:28;;;;;;;6.20;2.67;;;6.70;89.90;;;;;;5053982;28;20086;-86
2020/12/24 12:39:54;;;;;;;10.23;3.53;;;6.70;89.70;;;;;;5051954;28;20025;-86
2020/12/24 12:42:20;;;;;;;7.53;3.20;;;6.60;90.20;;;;;;5054058;28;20079;-86
2020/12/24 12:44:45;;;;;;;6.73;3.53;;;6.60;90.20;;;;;;5054215;28;20031;-86
2020/12/24 12:47:11;;;;;;;5.47;2.67;;;6.60;90.30;;;;;;5053939;28;20025;-86
2020/12/24 12:49:37;;;;;;;7.33;2.77;;;6.60;90.30;;;;;;5053043;28;20025;-86
2020/12/24 12:52:03;;;;;;;4.63;2.60;;;6.60;90.40;;;;;;5054949;28;20024;-86